Time;durP1;ratioP1;P1;durP2;ratioP2;P2;SDS_P1;SDS_P2;PMS_P1;PMS_P2;Temp;Humidity;BMP_temperature;BMP_pressure;BME280_temperature;BME280_humidity;BME280_pressure;Samples;Min_cycle;Max_cycle;Signal;HPM_P1;HPM_P2
2023/06/03 00:01:16;;;;;;;8.00;2.30;;;;;;;12.43;100.00;102113.00;4961614;28;20065;-69
2023/06/03 00:03:44;;;;;;;9.70;2.38;;;;;;;12.23;100.00;102112.59;4970191;28;20047;-69
2023/06/03 00:06:12;;;;;;;9.05;2.75;;;;;;;12.17;100.00;102112.75;4950938;29;20055;-69
2023/06/03 00:08:40;;;;;;;7.88;2.25;;;;;;;12.24;100.00;102115.19;4969414;28;20047;-69
2023/06/03 00:11:06;;;;;;;5.43;1.70;;;;;;;12.39;100.00;102108.72;4970335;28;20047;-69
2023/06/03 00:13:33;;;;;;;8.90;2.20;;;;;;;12.21;100.00;102112.63;4968655;28;20442;-69
2023/06/03 00:16:00;;;;;;;8.88;2.08;;;;;;;12.26;100.00;102107.28;4958585;28;20195;-69
2023/06/03 00:18:27;;;;;;;11.68;2.00;;;;;;;12.14;100.00;102103.16;4950509;28;20047;-68
2023/06/03 00:20:55;;;;;;;10.55;2.47;;;;;;;12.25;100.00;102100.28;4970818;28;20477;-68
2023/06/03 00:23:22;;;;;;;13.00;2.45;;;;;;;12.23;100.00;102104.72;4970432;28;20055;-69
2023/06/03 00:25:49;;;;;;;12.85;3.30;;;;;;;12.12;100.00;102095.31;4953546;28;20493;-68
2023/06/03 00:28:16;;;;;;;6.97;1.90;;;;;;;12.38;100.00;102101.75;4961958;28;20138;-68
2023/06/03 00:30:43;;;;;;;11.75;2.50;;;;;;;12.11;100.00;102090.09;4967938;28;20049;-68
2023/06/03 00:33:10;;;;;;;9.18;2.40;;;;;;;12.06;100.00;102089.34;4974084;28;20142;-68
2023/06/03 00:35:37;;;;;;;11.40;2.85;;;;;;;12.11;100.00;102098.84;4955170;28;20474;-68
2023/06/03 00:38:03;;;;;;;7.57;2.10;;;;;;;12.17;100.00;102097.00;4964202;28;20141;-68
2023/06/03 00:40:30;;;;;;;6.07;2.03;;;;;;;12.01;100.00;102073.69;4973885;28;21104;-68
2023/06/03 00:42:58;;;;;;;8.75;2.28;;;;;;;12.05;100.00;102098.97;4973862;28;20050;-68
2023/06/03 00:45:25;;;;;;;11.60;2.30;;;;;;;12.05;100.00;102091.09;4959271;28;20474;-68
2023/06/03 00:47:52;;;;;;;7.72;2.00;;;;;;;12.09;100.00;102098.03;4959789;28;20120;-68
2023/06/03 00:50:19;;;;;;;7.38;2.25;;;;;;;11.99;100.00;102096.50;4974011;28;20508;-68
2023/06/03 00:52:46;;;;;;;9.50;2.85;;;;;;;11.90;100.00;102088.78;4957196;28;20537;-69
2023/06/03 00:55:13;;;;;;;6.63;2.08;;;;;;;11.99;100.00;102106.13;4956944;28;20047;-68
2023/06/03 00:57:40;;;;;;;7.57;2.38;;;;;;;11.91;100.00;102093.16;4965063;28;20051;-68
2023/06/03 01:00:08;;;;;;;8.80;2.47;;;;;;;11.84;100.00;102091.53;4969577;28;20047;-68
2023/06/03 01:02:36;;;;;;;7.60;2.50;;;;;;;11.62;100.00;102068.38;4953264;29;20059;-68
2023/06/03 01:05:04;;;;;;;7.45;2.20;;;;;;;11.74;100.00;102080.38;4958051;28;20055;-69
2023/06/03 01:07:56;;;;;;;8.48;2.20;;;;;;;11.88;100.00;102091.44;4972701;28;20069;-68
2023/06/03 01:10:49;;;;;;;7.80;1.85;;;;;;;11.99;100.00;102099.13;4972584;28;20170;-68
2023/06/03 01:13:19;;;;;;;3.85;1.60;;;;;;;12.00;100.00;102099.97;4961094;28;20054;-69
2023/06/03 01:15:50;;;;;;;9.40;2.20;;;;;;;11.71;100.00;102083.06;4969135;28;20053;-69
2023/06/03 01:18:18;;;;;;;7.82;2.40;;;;;;;11.82;100.00;102098.59;4967091;28;20055;-68
2023/06/03 01:20:45;;;;;;;8.07;2.10;;;;;;;11.71;100.00;102096.19;4959149;28;20158;-69
2023/06/03 01:23:28;;;;;;;8.20;1.80;;;;;;;11.72;100.00;102095.28;4961330;28;20047;-69
2023/06/03 01:25:57;;;;;;;10.65;2.67;;;;;;;11.54;100.00;102083.41;4953644;28;20734;-69
2023/06/03 01:28:28;;;;;;;10.43;2.25;;;;;;;11.53;100.00;102092.19;4962186;28;20055;-69
2023/06/03 01:30:56;;;;;;;9.27;2.40;;;;;;;11.48;100.00;102094.88;4959440;28;20051;-69
2023/06/03 01:33:25;;;;;;;9.70;2.30;;;;;;;11.34;100.00;102081.19;4968347;28;20070;-68
2023/06/03 01:35:54;;;;;;;12.65;2.67;;;;;;;11.41;100.00;102090.66;4966017;28;20137;-68
2023/06/03 01:38:23;;;;;;;5.90;2.15;;;;;;;11.34;100.00;102095.16;4951865;28;20055;-69
2023/06/03 01:40:52;;;;;;;6.60;1.90;;;;;;;11.09;100.00;102052.81;4951869;29;20561;-68
2023/06/03 01:43:19;;;;;;;7.15;2.20;;;;;;;11.44;100.00;102085.34;4952495;29;20047;-68
2023/06/03 01:45:46;;;;;;;7.60;2.08;;;;;;;11.58;100.00;102095.56;4935795;29;20047;-68
2023/06/03 01:48:13;;;;;;;6.60;2.10;;;;;;;11.62;100.00;102099.00;4953854;28;20053;-68
2023/06/03 01:50:42;;;;;;;6.28;2.17;;;;;;;11.61;100.00;102092.00;4952458;29;20051;-68
2023/06/03 01:53:09;;;;;;;8.57;2.03;;;;;;;11.80;100.00;102101.22;4952622;29;20043;-69
2023/06/03 01:55:36;;;;;;;6.35;2.03;;;;;;;11.83;100.00;102101.19;4951847;28;20051;-68
2023/06/03 01:58:03;;;;;;;8.13;2.35;;;;;;;11.75;100.00;102093.44;4952897;29;20437;-68
2023/06/03 02:00:30;;;;;;;6.85;2.10;;;;;;;11.67;100.00;102092.75;4952403;28;20061;-68
2023/06/03 02:02:57;;;;;;;7.10;2.17;;;;;;;11.60;100.00;102088.53;4952853;29;20078;-68
2023/06/03 02:05:23;;;;;;;7.03;2.08;;;;;;;11.67;100.00;102100.63;4952492;28;20042;-68
2023/06/03 02:07:50;;;;;;;7.00;2.17;;;;;;;11.70;100.00;102097.91;4952178;29;20051;-68
2023/06/03 02:10:18;;;;;;;8.30;2.10;;;;;;;11.62;100.00;102102.47;4952889;29;20432;-68
2023/06/03 02:12:45;;;;;;;8.43;2.13;;;;;;;11.58;100.00;102088.56;4965225;28;20130;-68
2023/06/03 02:15:11;;;;;;;10.63;2.28;;;;;;;11.56;100.00;102105.22;4951880;28;20053;-68
2023/06/03 02:17:38;;;;;;;5.43;2.03;;;;;;;11.45;100.00;102100.19;4952301;29;20149;-68
2023/06/03 02:20:06;;;;;;;8.82;2.30;;;;;;;11.45;100.00;102099.31;4951353;29;20670;-68
2023/06/03 02:22:33;;;;;;;9.05;2.20;;;;;;;11.47;100.00;102106.25;4950987;28;20043;-68
2023/06/03 02:25:01;;;;;;;7.97;2.08;;;;;;;11.43;100.00;102101.97;4950040;29;20059;-68
2023/06/03 02:27:28;;;;;;;12.02;2.40;;;;;;;11.42;100.00;102095.03;4952867;28;20433;-68
2023/06/03 02:29:55;;;;;;;9.50;2.30;;;;;;;11.43;100.00;102101.97;4952787;29;20063;-69
2023/06/03 02:32:21;;;;;;;8.18;2.00;;;;;;;11.36;100.00;102082.00;4951576;29;20481;-68
2023/06/03 02:34:49;;;;;;;7.95;2.30;;;;;;;11.49;100.00;102101.88;4949241;28;20055;-68
2023/06/03 02:37:16;;;;;;;8.40;2.42;;;;;;;11.49;100.00;102096.63;4952117;28;20055;-68
2023/06/03 02:39:43;;;;;;;7.00;2.83;;;;;;;11.58;100.00;102085.94;4951570;28;20143;-68
2023/06/03 02:42:10;;;;;;;7.88;2.42;;;;;;;11.56;100.00;102090.34;4951562;29;20049;-68
2023/06/03 02:44:37;;;;;;;7.43;2.25;;;;;;;11.64;100.00;102084.09;4950749;29;20056;-69
2023/06/03 02:47:04;;;;;;;7.22;1.92;;;;;;;11.87;100.00;102088.84;4951284;28;20050;-68
2023/06/03 02:49:31;;;;;;;10.23;2.47;;;;;;;11.93;100.00;102094.00;4952081;29;20568;-68
2023/06/03 02:51:58;;;;;;;7.13;2.40;;;;;;;11.91;100.00;102096.66;4951742;28;20106;-69
2023/06/03 02:54:25;;;;;;;11.05;2.65;;;;;;;11.73;100.00;102076.03;4952004;29;20125;-69
2023/06/03 02:56:52;;;;;;;8.80;2.70;;;;;;;11.85;100.00;102090.66;4951128;28;20138;-68
2023/06/03 02:59:19;;;;;;;10.60;2.63;;;;;;;11.83;100.00;102089.78;4952254;28;20051;-68
2023/06/03 03:01:46;;;;;;;6.35;2.22;;;;;;;11.80;100.00;102095.13;4951633;29;20524;-68
2023/06/03 03:04:13;;;;;;;8.00;2.00;;;;;;;11.73;100.00;102076.03;4952368;29;20081;-68
2023/06/03 03:06:40;;;;;;;9.52;2.28;;;;;;;11.95;100.00;102097.44;4951680;28;20102;-68
2023/06/03 03:09:08;;;;;;;6.88;2.22;;;;;;;11.77;100.00;102070.69;4939263;29;20051;-68
2023/06/03 03:11:35;;;;;;;8.27;2.65;;;;;;;11.50;100.00;102074.72;4951225;29;20054;-68
2023/06/03 03:14:02;;;;;;;7.43;2.13;;;;;;;11.82;100.00;102083.69;4951224;28;20741;-68
2023/06/03 03:16:29;;;;;;;8.02;2.35;;;;;;;11.98;100.00;102096.53;4951473;29;20504;-68
2023/06/03 03:18:56;;;;;;;8.30;2.60;;;;;;;11.93;100.00;102094.88;4951855;28;20054;-68
2023/06/03 03:21:22;;;;;;;12.38;2.75;;;;;;;12.07;100.00;102091.91;4951692;29;20051;-68
2023/06/03 03:23:50;;;;;;;7.25;2.17;;;;;;;12.19;100.00;102090.78;4954266;28;20067;-68
2023/06/03 03:26:21;;;;;;;6.75;2.30;;;;;;;12.05;100.00;102087.63;4944993;28;20050;-68
2023/06/03 03:28:49;;;;;;;8.45;2.53;;;;;;;12.00;100.00;102090.34;4956763;28;20110;-68
2023/06/03 03:31:16;;;;;;;9.38;2.83;;;;;;;11.85;100.00;102082.78;4951043;28;20134;-68
2023/06/03 03:33:43;;;;;;;9.57;2.80;;;;;;;11.67;100.00;102073.50;4952164;29;20077;-68
2023/06/03 03:36:13;;;;;;;8.80;2.95;;;;;;;11.65;100.00;102083.19;4951390;29;20047;-68
2023/06/03 03:38:40;;;;;;;8.55;2.55;;;;;;;11.50;100.00;102077.34;4951413;28;20051;-68
2023/06/03 03:41:07;;;;;;;7.60;2.65;;;;;;;11.34;100.00;102076.78;4961803;28;20059;-68
2023/06/03 03:43:34;;;;;;;8.15;2.53;;;;;;;11.30;100.00;102072.50;4951328;28;20066;-68
2023/06/03 03:46:02;;;;;;;9.40;3.00;;;;;;;11.42;100.00;102083.63;4950430;28;20134;-68
2023/06/03 03:48:30;;;;;;;8.02;2.35;;;;;;;11.48;100.00;102070.41;4951027;28;20125;-69
2023/06/03 03:50:57;;;;;;;7.07;2.25;;;;;;;11.53;100.00;102058.94;4951278;29;20142;-68
2023/06/03 03:53:35;;;;;;;5.88;2.10;;;;;;;11.44;100.00;102064.38;4951410;28;20052;-68
2023/06/03 03:56:02;;;;;;;8.23;2.35;;;;;;;11.41;100.00;102053.94;4950389;28;20557;-68
2023/06/03 03:58:40;;;;;;;7.00;2.20;;;;;;;11.51;100.00;102057.22;4951118;28;20047;-68
2023/06/03 04:01:16;;;;;;;7.63;2.30;;;;;;;11.46;100.00;102057.34;4954683;28;20477;-68
2023/06/03 04:03:45;;;;;;;6.50;2.40;;;;;;;11.30;100.00;102061.16;4955051;28;20086;-68
2023/06/03 04:06:27;;;;;;;6.07;2.22;;;;;;;11.34;100.00;102061.06;4954847;28;20085;-68
2023/06/03 04:08:54;;;;;;;8.45;2.60;;;;;;;11.36;100.00;102053.16;4955088;28;20137;-68
2023/06/03 04:11:27;;;;;;;5.82;2.08;;;;;;;11.90;100.00;102060.81;4955085;28;20074;-68
2023/06/03 04:13:57;;;;;;;8.98;2.50;;;;;;;12.70;100.00;102073.84;4952969;28;20065;-68
2023/06/03 04:16:58;;;;;;;7.72;2.22;;;;;;;13.21;100.00;102068.09;4954747;29;20137;-68
2023/06/03 04:19:32;;;;;;;7.13;2.05;;;;;;;13.48;100.00;102063.88;4941786;28;20085;-68
2023/06/03 04:22:00;;;;;;;7.32;2.50;;;;;;;13.50;100.00;102071.72;4954632;29;20462;-68
2023/06/03 04:24:27;;;;;;;8.82;1.95;;;;;;;13.52;100.00;102074.31;4954304;28;20047;-68
2023/06/03 04:26:54;;;;;;;5.80;1.98;;;;;;;13.54;100.00;102080.38;4954234;28;20055;-68
2023/06/03 04:29:22;;;;;;;7.28;2.25;;;;;;;13.72;100.00;102071.09;4955075;29;20046;-68
2023/06/03 04:31:49;;;;;;;8.57;2.13;;;;;;;14.23;100.00;102073.03;4954732;28;20442;-69
2023/06/03 04:34:16;;;;;;;4.95;1.75;;;;;;;14.50;100.00;102071.31;4954975;28;20066;-68
2023/06/03 04:36:43;;;;;;;6.45;1.92;;;;;;;14.96;100.00;102082.97;4954128;29;20082;-68
2023/06/03 04:39:10;;;;;;;6.72;2.20;;;;;;;15.16;100.00;102061.16;4953737;28;20051;-68
2023/06/03 04:41:38;;;;;;;9.60;2.78;;;;;;;15.37;100.00;102078.00;4936385;29;20043;-68
2023/06/03 04:44:08;;;;;;;9.68;2.55;;;;;;;15.49;100.00;102084.63;4954711;29;20055;-68
2023/06/03 04:46:35;;;;;;;9.90;2.92;;;;;;;15.70;100.00;102074.16;4951020;28;20105;-68
2023/06/03 04:49:02;;;;;;;9.73;3.00;;;;;;;15.81;100.00;102090.50;4954746;29;20061;-68
2023/06/03 04:51:33;;;;;;;8.20;2.40;;;;;;;15.27;100.00;102081.03;4954490;29;20163;-68
2023/06/03 04:54:01;;;;;;;7.60;2.20;;;;;;;14.43;100.00;102101.41;4954409;29;20556;-69
2023/06/03 04:56:31;;;;;;;12.60;3.58;;;;;;;14.11;100.00;102084.84;4953222;28;20102;-69
2023/06/03 04:59:03;;;;;;;9.35;2.40;;;;;;;13.78;100.00;102108.63;4954290;28;20501;-68
2023/06/03 05:01:36;;;;;;;10.00;2.70;;;;;;;13.53;100.00;102111.09;4953908;29;20078;-68
2023/06/03 05:04:04;;;;;;;5.55;1.83;;;;;;;13.63;100.00;102107.31;4954300;29;20073;-68
2023/06/03 05:06:33;;;;;;;7.70;2.10;;;;;;;13.83;100.00;102109.38;4953824;29;20061;-68
2023/06/03 05:09:00;;;;;;;6.57;1.92;;;;;;;13.98;100.00;102110.66;4954554;28;20051;-68
2023/06/03 05:11:27;;;;;;;7.10;1.90;;;;;;;13.77;100.00;102101.63;4953054;28;20104;-68
2023/06/03 05:13:54;;;;;;;8.30;2.55;;;;;;;13.68;100.00;102113.28;4953377;28;20507;-68
2023/06/03 05:16:21;;;;;;;8.20;2.08;;;;;;;13.88;100.00;102111.00;4961282;28;20485;-68
2023/06/03 05:18:47;;;;;;;11.20;3.22;;;;;;;13.85;100.00;102125.13;4960253;28;20134;-68
2023/06/03 05:21:19;;;;;;;10.02;2.80;;;;;;;13.83;100.00;102098.84;4953433;28;20074;-68
2023/06/03 05:23:46;;;;;;;8.32;3.08;;;;;;;14.34;100.00;102121.00;4959955;28;20047;-68
2023/06/03 05:26:12;;;;;;;9.60;3.17;;;;;;;14.35;100.00;102096.38;4956017;28;20043;-68
2023/06/03 05:28:39;;;;;;;12.20;3.45;;;;;;;14.53;100.00;102123.91;4962102;28;20043;-69
2023/06/03 05:31:06;;;;;;;15.88;3.47;;;;;;;14.71;100.00;102121.59;4954845;28;20047;-69
2023/06/03 05:33:35;;;;;;;10.55;2.97;;;;;;;14.90;100.00;102124.50;4957305;28;20511;-69
2023/06/03 05:36:02;;;;;;;9.82;2.92;;;;;;;15.12;100.00;102125.50;4953308;28;20047;-69
2023/06/03 05:38:30;;;;;;;10.05;2.78;;;;;;;15.50;100.00;102123.28;4954049;29;20708;-69
2023/06/03 05:40:58;;;;;;;10.90;3.10;;;;;;;15.52;100.00;102128.50;4956143;28;20051;-69
2023/06/03 05:43:24;;;;;;;12.18;3.42;;;;;;;15.39;100.00;102120.16;4953299;28;20142;-69
2023/06/03 05:45:51;;;;;;;10.55;3.53;;;;;;;15.59;100.00;102118.59;4953001;28;20051;-69
2023/06/03 05:48:18;;;;;;;10.27;3.05;;;;;;;16.03;100.00;102137.22;4953317;29;20094;-69
2023/06/03 05:50:54;;;;;;;11.13;2.92;;;;;;;16.41;100.00;102137.50;4953671;29;20051;-69
2023/06/03 05:53:24;;;;;;;11.18;3.33;;;;;;;16.24;100.00;102141.66;4953144;28;20051;-69
2023/06/03 05:55:52;;;;;;;12.85;3.83;;;;;;;16.30;100.00;102141.41;4959644;28;20055;-69
2023/06/03 05:58:19;;;;;;;11.98;3.92;;;;;;;16.40;100.00;102126.06;4964833;28;20058;-69
2023/06/03 06:00:46;;;;;;;8.55;3.13;;;;;;;16.39;100.00;102139.34;4963307;28;20057;-69
2023/06/03 06:03:13;;;;;;;8.65;2.80;;;;;;;16.59;100.00;102141.19;4966447;28;20094;-69
2023/06/03 06:05:41;;;;;;;12.27;3.65;;;;;;;16.78;100.00;102144.78;4963572;28;20044;-69
2023/06/03 06:08:07;;;;;;;10.73;3.08;;;;;;;16.54;100.00;102130.81;4961438;28;20051;-69
2023/06/03 06:10:34;;;;;;;11.27;4.25;;;;;;;16.52;100.00;102124.72;4954845;28;21593;-69
2023/06/03 06:13:01;;;;;;;13.15;4.40;;;;;;;16.48;100.00;102125.75;4967693;28;20692;-69
2023/06/03 06:15:29;;;;;;;13.93;3.28;;;;;;;16.70;100.00;102134.53;4965625;28;20544;-69
2023/06/03 06:17:56;;;;;;;12.45;3.53;;;;;;;16.61;100.00;102112.88;4955775;28;20069;-69
2023/06/03 06:20:23;;;;;;;13.02;3.63;;;;;;;16.76;100.00;102117.53;4965543;28;20413;-68
2023/06/03 06:22:50;;;;;;;9.43;3.15;;;;;;;17.03;100.00;102125.28;4955753;28;20058;-68
2023/06/03 06:25:17;;;;;;;12.85;3.50;;;;;;;17.56;100.00;102115.91;4952775;28;20138;-69
2023/06/03 06:27:44;;;;;;;10.32;3.05;;;;;;;17.67;100.00;102121.59;4955724;28;20043;-70
2023/06/03 06:30:14;;;;;;;8.20;2.38;;;;;;;18.15;100.00;102120.28;4958361;28;20054;-70
2023/06/03 06:32:51;;;;;;;11.32;3.05;;;;;;;18.31;100.00;102114.22;4953565;28;20051;-69
2023/06/03 06:35:20;;;;;;;13.73;4.22;;;;;;;18.45;100.00;102117.09;4952920;28;20062;-68
2023/06/03 06:37:47;;;;;;;11.23;2.80;;;;;;;18.83;100.00;102103.72;4961695;28;20058;-70
2023/06/03 06:40:20;;;;;;;12.57;3.25;;;;;;;18.73;100.00;102113.91;4968933;28;20139;-70
2023/06/03 06:42:47;;;;;;;9.52;2.10;;;;;;;18.83;100.00;102122.28;4954035;28;20145;-70
2023/06/03 06:45:28;;;;;;;10.68;2.45;;;;;;;18.92;100.00;102100.59;4953859;28;20062;-69
2023/06/03 06:48:05;;;;;;;6.60;2.15;;;;;;;19.43;100.00;102116.53;4954247;28;20051;-69
2023/06/03 06:50:50;;;;;;;12.20;2.92;;;;;;;19.88;100.00;102117.69;4945995;28;20047;-70
2023/06/03 06:53:18;;;;;;;10.60;2.55;;;;;;;19.58;100.00;102108.69;4956753;28;20051;-69
2023/06/03 06:55:53;;;;;;;9.00;2.70;;;;;;;19.88;100.00;102125.69;4956438;28;20373;-69
2023/06/03 06:58:21;;;;;;;11.55;2.50;;;;;;;19.77;100.00;102125.38;4963799;28;20050;-69
2023/06/03 07:00:49;;;;;;;13.77;2.45;;;;;;;19.85;100.00;102125.00;4957825;28;20421;-69
2023/06/03 07:03:18;;;;;;;7.45;1.95;;;;;;;19.91;100.00;102127.28;4951103;28;20051;-69
2023/06/03 07:05:52;;;;;;;8.18;1.92;;;;;;;19.96;100.00;102124.38;4955540;28;20053;-68
2023/06/03 07:08:22;;;;;;;13.85;2.88;;;;;;;19.95;100.00;102134.16;4964773;28;20113;-69
2023/06/03 07:10:50;;;;;;;8.45;2.15;;;;;;;20.43;100.00;102129.69;4959796;28;20082;-69
2023/06/03 07:13:17;;;;;;;7.20;2.13;;;;;;;20.69;100.00;102124.69;4966786;28;20105;-69
2023/06/03 07:15:44;;;;;;;9.25;2.13;;;;;;;20.65;100.00;102128.50;4963090;28;20149;-69
2023/06/03 07:18:12;;;;;;;8.55;2.45;;;;;;;20.30;100.00;102136.66;4963509;28;20412;-69
2023/06/03 07:20:42;;;;;;;11.85;2.88;;;;;;;20.42;100.00;102132.44;4952528;28;20051;-69
2023/06/03 07:23:19;;;;;;;9.63;2.22;;;;;;;20.01;100.00;102131.16;4953170;28;20553;-69
2023/06/03 07:25:48;;;;;;;12.00;2.88;;;;;;;20.22;100.00;102144.19;4950873;28;20416;-69
2023/06/03 07:28:16;;;;;;;7.32;2.00;;;;;;;20.48;100.00;102134.75;4955816;28;20054;-69
2023/06/03 07:30:44;;;;;;;11.70;2.63;;;;;;;20.70;100.00;102120.22;4963641;28;20061;-69
2023/06/03 07:33:33;;;;;;;8.95;2.42;;;;;;;20.62;100.00;102139.31;4960101;28;20553;-69
2023/06/03 07:36:02;;;;;;;8.63;2.40;;;;;;;20.78;100.00;102139.25;4963602;28;20452;-69
2023/06/03 07:38:42;;;;;;;8.82;2.22;;;;;;;20.75;100.00;102128.78;4973526;28;20080;-70
2023/06/03 07:41:09;;;;;;;12.48;3.05;;;;;;;20.74;100.00;102141.25;4955622;28;20149;-70
2023/06/03 07:43:40;;;;;;;12.50;2.80;;;;;;;20.80;100.00;102146.19;4956595;28;20283;-70
2023/06/03 07:46:07;;;;;;;9.77;2.30;;;;;;;20.62;100.00;102155.25;4960818;28;20480;-69
2023/06/03 07:48:38;;;;;;;8.60;1.92;;;;;;;20.25;100.00;102166.16;4958026;28;20055;-69
2023/06/03 07:51:06;;;;;;;10.50;2.10;;;;;;;20.12;100.00;102135.88;4973716;28;20057;-69
2023/06/03 07:53:36;;;;;;;8.93;1.85;;;;;;;19.89;100.00;102155.75;4955986;28;20679;-70
2023/06/03 07:56:13;;;;;;;14.00;2.75;;;;;;;19.64;100.00;102161.50;4953745;29;20078;-68
2023/06/03 07:58:39;;;;;;;6.85;2.00;;;;;;;20.05;100.00;102151.31;4956971;28;20050;-68
2023/06/03 08:01:06;;;;;;;6.93;1.98;;;;;;;20.61;100.00;102153.50;4957707;28;20063;-68
2023/06/03 08:03:34;;;;;;;8.57;2.55;;;;;;;20.58;100.00;102157.22;4951079;28;20043;-69
2023/06/03 08:06:01;;;;;;;8.43;2.42;;;;;;;20.53;100.00;102148.63;4967398;28;20050;-69
2023/06/03 08:08:33;;;;;;;9.30;2.83;;;;;;;20.78;100.00;102149.91;4959687;28;20083;-68
2023/06/03 08:11:01;;;;;;;10.75;2.72;;;;;;;21.03;100.00;102149.31;4956483;28;20634;-69
2023/06/03 08:13:28;;;;;;;10.70;2.75;;;;;;;20.71;100.00;102145.91;4956701;28;20517;-69
2023/06/03 08:15:55;;;;;;;9.10;2.53;;;;;;;20.96;100.00;102140.81;4945166;28;20055;-69
2023/06/03 08:18:41;;;;;;;12.82;3.15;;;;;;;21.13;100.00;102145.16;4954660;28;20054;-69
2023/06/03 08:21:08;;;;;;;9.43;2.75;;;;;;;20.93;100.00;102150.81;4946488;29;20146;-69
2023/06/03 08:23:36;;;;;;;14.15;3.72;;;;;;;21.22;100.00;102143.75;4955799;28;20553;-69
2023/06/03 08:26:04;;;;;;;7.80;2.42;;;;;;;21.58;100.00;102156.69;4955082;28;20122;-69
2023/06/03 08:28:31;;;;;;;7.53;2.38;;;;;;;21.29;100.00;102146.91;4954077;28;20303;-70
2023/06/03 08:30:58;;;;;;;7.40;2.53;;;;;;;20.94;100.00;102156.03;4966832;28;20058;-69
2023/06/03 08:33:25;;;;;;;9.38;2.25;;;;;;;20.81;100.00;102158.56;4958449;28;20090;-69
2023/06/03 08:35:55;;;;;;;12.32;2.72;;;;;;;20.52;100.00;102157.53;4958987;28;20061;-69
2023/06/03 08:38:22;;;;;;;9.70;2.83;;;;;;;20.02;100.00;102164.75;4957600;28;20166;-69
2023/06/03 08:40:50;;;;;;;11.73;2.47;;;;;;;20.10;100.00;102164.38;4963648;28;20054;-70
2023/06/03 08:43:20;;;;;;;7.78;2.25;;;;;;;19.92;100.00;102153.78;4955505;28;20059;-69
2023/06/03 08:46:05;;;;;;;9.30;2.70;;;;;;;20.45;100.00;102156.19;4966874;28;20061;-69
2023/06/03 08:49:00;;;;;;;7.88;2.13;;;;;;;20.48;100.00;102162.19;4957420;28;20055;-69
2023/06/03 08:51:28;;;;;;;12.98;2.80;;;;;;;20.56;100.00;102156.44;4950823;28;20050;-69
2023/06/03 08:53:55;;;;;;;8.10;2.10;;;;;;;21.19;100.00;102155.44;4955969;28;20047;-69
2023/06/03 08:56:25;;;;;;;6.60;1.92;;;;;;;21.28;100.00;102156.69;4954495;28;20066;-69
2023/06/03 08:59:00;;;;;;;7.75;2.28;;;;;;;21.04;100.00;102135.06;4955635;28;20051;-69
2023/06/03 09:01:32;;;;;;;9.05;2.60;;;;;;;20.85;100.00;102152.13;4954705;28;20528;-69
2023/06/03 09:04:02;;;;;;;14.00;3.15;;;;;;;20.77;100.00;102150.84;4956402;28;20543;-69
2023/06/03 09:06:29;;;;;;;9.15;2.53;;;;;;;20.64;100.00;102132.94;4963918;28;20050;-69
2023/06/03 09:08:57;;;;;;;11.88;2.72;;;;;;;20.18;100.00;102167.44;4965717;28;20473;-69
2023/06/03 09:11:25;;;;;;;9.88;2.38;;;;;;;20.22;100.00;102152.16;4953523;28;20051;-69
2023/06/03 09:13:53;;;;;;;12.52;3.38;;;;;;;20.25;100.00;102154.66;4960072;28;20047;-69
2023/06/03 09:16:20;;;;;;;11.20;2.42;;;;;;;20.16;100.00;102156.03;4959346;28;20399;-68
2023/06/03 09:18:49;;;;;;;14.20;3.88;;;;;;;20.10;100.00;102153.72;4963387;28;20055;-68
2023/06/03 09:21:16;;;;;;;12.40;2.70;;;;;;;19.96;100.00;102151.81;4953552;28;20065;-69
2023/06/03 09:23:43;;;;;;;12.13;2.75;;;;;;;20.26;100.00;102153.72;4956400;28;20422;-69
2023/06/03 09:26:11;;;;;;;10.57;2.85;;;;;;;20.48;100.00;102145.38;4960045;28;20390;-70
2023/06/03 09:28:37;;;;;;;11.60;3.50;;;;;;;20.20;100.00;102152.28;4968023;28;20055;-70
2023/06/03 09:31:05;;;;;;;13.85;3.40;;;;;;;19.98;100.00;102147.28;4957640;28;20055;-69
2023/06/03 09:33:32;;;;;;;10.68;3.10;;;;;;;19.91;100.00;102136.13;4961459;28;20691;-70
2023/06/03 09:36:15;;;;;;;13.98;3.80;;;;;;;19.88;100.00;102146.06;4942997;28;20055;-68
2023/06/03 09:38:48;;;;;;;13.50;3.60;;;;;;;19.86;100.00;102148.78;4962910;28;20051;-68
2023/06/03 09:41:21;;;;;;;14.57;3.42;;;;;;;19.95;100.00;102163.38;4952440;28;20051;-69
2023/06/03 09:44:08;;;;;;;13.05;3.25;;;;;;;19.80;100.00;102158.94;4955384;28;20051;-69
2023/06/03 09:46:35;;;;;;;11.10;3.08;;;;;;;19.96;100.00;102153.63;4965871;28;20341;-69
2023/06/03 09:49:14;;;;;;;14.55;4.05;;;;;;;19.47;100.00;102165.06;4965779;28;20050;-69
2023/06/03 09:52:03;;;;;;;12.77;3.15;;;;;;;19.94;100.00;102169.66;4961675;28;20063;-68
2023/06/03 09:54:30;;;;;;;10.93;2.80;;;;;;;19.80;100.00;102149.16;4968788;28;20049;-68
2023/06/03 09:57:08;;;;;;;11.85;3.15;;;;;;;19.80;100.00;102165.09;4966561;28;20062;-69
2023/06/03 09:59:35;;;;;;;17.90;3.63;;;;;;;19.71;100.00;102161.09;4959617;28;20093;-69
2023/06/03 10:02:09;;;;;;;15.10;3.85;;;;;;;19.13;100.00;102165.00;4954951;28;20356;-69
2023/06/03 10:04:40;;;;;;;12.05;3.17;;;;;;;19.25;100.00;102182.09;4946591;28;20046;-69
2023/06/03 10:07:13;;;;;;;14.30;3.90;;;;;;;19.03;100.00;102174.34;4954367;28;20054;-69
2023/06/03 10:09:44;;;;;;;20.38;4.10;;;;;;;18.77;100.00;102173.84;4948861;28;20560;-69
2023/06/03 10:12:16;;;;;;;16.80;4.63;;;;;;;18.87;100.00;102174.25;4936894;28;20119;-70
2023/06/03 10:14:47;;;;;;;14.00;3.83;;;;;;;18.97;100.00;102174.69;4963082;28;20061;-70
2023/06/03 10:17:17;;;;;;;15.18;3.78;;;;;;;19.32;100.00;102174.69;4962296;28;20134;-69
2023/06/03 10:19:45;;;;;;;10.85;3.15;;;;;;;18.99;100.00;102180.75;4953234;28;20058;-69
2023/06/03 10:22:17;;;;;;;13.38;3.58;;;;;;;19.05;100.00;102182.25;4955204;28;20069;-68
2023/06/03 10:24:46;;;;;;;17.35;3.63;;;;;;;18.73;100.00;102174.94;4953841;28;20051;-68
2023/06/03 10:27:15;;;;;;;11.93;2.97;;;;;;;18.60;100.00;102172.00;4955846;28;20056;-68
2023/06/03 10:29:42;;;;;;;12.00;3.20;;;;;;;19.10;100.00;102180.22;4950509;28;20409;-68
2023/06/03 10:32:16;;;;;;;16.38;3.28;;;;;;;19.27;100.00;102166.09;4949816;28;20051;-68
2023/06/03 10:34:44;;;;;;;13.27;3.25;;;;;;;18.72;100.00;102183.81;4953616;28;20103;-68
2023/06/03 10:37:14;;;;;;;12.50;3.10;;;;;;;18.69;100.00;102164.53;4959383;28;20133;-68
2023/06/03 10:39:42;;;;;;;12.98;3.35;;;;;;;18.95;100.00;102171.25;4954312;28;20626;-70
2023/06/03 10:42:11;;;;;;;14.70;3.55;;;;;;;18.45;100.00;102163.94;4957410;28;20409;-72
2023/06/03 10:44:38;;;;;;;16.33;3.97;;;;;;;18.25;100.00;102167.53;4953464;28;20049;-70
2023/06/03 10:47:08;;;;;;;15.75;3.63;;;;;;;18.63;100.00;102178.09;4951722;28;20433;-70
2023/06/03 10:49:48;;;;;;;10.23;2.88;;;;;;;18.58;100.00;102165.91;4954452;28;20058;-68
2023/06/03 10:52:27;;;;;;;13.32;3.10;;;;;;;18.56;100.00;102182.84;4950150;28;20158;-69
2023/06/03 10:55:13;;;;;;;10.18;2.78;;;;;;;18.52;100.00;102174.19;4949737;28;20521;-69
2023/06/03 10:57:46;;;;;;;14.27;2.90;;;;;;;18.57;100.00;102180.13;4950984;28;20047;-70
2023/06/03 11:00:51;;;;;;;12.45;2.70;;;;;;;18.68;100.00;102189.34;4949094;28;20066;-71
2023/06/03 11:03:18;;;;;;;11.20;2.92;;;;;;;19.00;100.00;102192.22;4950882;29;20629;-71
2023/06/03 11:05:45;;;;;;;12.75;3.30;;;;;;;18.54;100.00;102195.34;4952592;28;20069;-71
2023/06/03 11:08:13;;;;;;;10.80;3.00;;;;;;;18.42;100.00;102187.97;4950601;28;20051;-70
2023/06/03 11:10:42;;;;;;;9.93;2.67;;;;;;;18.89;100.00;102192.78;4943043;28;20055;-71
2023/06/03 11:13:11;;;;;;;9.13;2.40;;;;;;;18.82;100.00;102178.94;4954906;28;20089;-71
2023/06/03 11:15:58;;;;;;;14.18;3.20;;;;;;;18.95;100.00;102195.13;4945716;28;20050;-71
2023/06/03 11:18:25;;;;;;;12.90;2.92;;;;;;;18.63;100.00;102189.59;4947470;28;20546;-69
2023/06/03 11:20:51;;;;;;;11.45;3.10;;;;;;;18.65;100.00;102194.81;4957049;28;20059;-68
2023/06/03 11:23:44;;;;;;;9.68;2.40;;;;;;;18.85;100.00;102204.47;4930997;28;20505;-70
2023/06/03 11:26:31;;;;;;;15.98;2.90;;;;;;;18.73;100.00;102206.78;4949413;28;20047;-70